Time;durP1;ratioP1;P1;durP2;ratioP2;P2;SDS_P1;SDS_P2;PMS_P1;PMS_P2;Temp;Humidity;BMP_temperature;BMP_pressure;BME280_temperature;BME280_humidity;BME280_pressure;Samples;Min_cycle;Max_cycle;Signal;HPM_P1;HPM_P2
2022/07/22 00:01:42;;;;;;;2.97;1.15;;;;;;;17.66;73.22;102261.13;4998476;28;20049;-76
2022/07/22 00:04:07;;;;;;;3.05;1.20;;;;;;;17.67;73.35;102262.00;4981635;28;20257;-76
2022/07/22 00:06:33;;;;;;;2.08;1.17;;;;;;;17.67;73.32;102254.91;4980918;28;20026;-76
2022/07/22 00:08:58;;;;;;;2.95;1.40;;;;;;;17.65;73.35;102254.97;4997272;28;20076;-76
2022/07/22 00:11:24;;;;;;;2.33;1.25;;;;;;;17.64;73.21;102255.03;4980661;28;20097;-76
2022/07/22 00:13:49;;;;;;;4.40;1.13;;;;;;;17.64;73.44;102249.75;4980926;28;20404;-76
2022/07/22 00:16:15;;;;;;;2.65;1.30;;;;;;;17.63;73.73;102259.50;4996982;28;20042;-76
2022/07/22 00:18:40;;;;;;;4.95;2.05;;;;;;;17.63;73.47;102251.53;4998255;28;20348;-76
2022/07/22 00:21:06;;;;;;;5.53;1.30;;;;;;;17.62;73.50;102247.16;4997828;28;20046;-76
2022/07/22 00:23:31;;;;;;;4.88;1.35;;;;;;;17.62;73.54;102249.81;4996420;28;20097;-76
2022/07/22 00:25:57;;;;;;;3.22;1.08;;;;;;;17.63;73.59;102242.75;4997083;28;20260;-76
2022/07/22 00:28:22;;;;;;;2.25;1.10;;;;;;;17.60;73.58;102241.06;4996104;28;20065;-76
2022/07/22 00:30:48;;;;;;;3.03;1.30;;;;;;;17.61;73.76;102240.16;4998292;28;20117;-76
2022/07/22 00:33:13;;;;;;;5.55;1.27;;;;;;;17.60;73.61;102238.44;4995738;28;20037;-76
2022/07/22 00:35:38;;;;;;;3.38;1.48;;;;;;;17.60;73.92;102243.72;4997716;28;20113;-76
2022/07/22 00:38:04;;;;;;;3.72;1.23;;;;;;;17.60;73.79;102229.63;4980183;28;19996;-76
2022/07/22 00:40:30;;;;;;;4.65;1.52;;;;;;;17.59;73.73;102226.13;4997239;28;20042;-76
2022/07/22 00:42:55;;;;;;;2.45;1.40;;;;;;;17.59;73.59;102230.56;4996778;28;20049;-76
2022/07/22 00:45:21;;;;;;;4.45;1.30;;;;;;;17.59;74.16;102235.84;4996743;28;20046;-76
2022/07/22 00:47:46;;;;;;;5.00;1.20;;;;;;;17.59;73.96;102225.25;4997429;28;20034;-76
2022/07/22 00:50:14;;;;;;;2.03;1.30;;;;;;;17.59;73.98;102227.91;4997060;28;20058;-76
2022/07/22 00:52:40;;;;;;;1.75;1.15;;;;;;;17.57;73.67;102222.72;4980559;28;20038;-76
2022/07/22 00:55:07;;;;;;;4.20;2.10;;;;;;;17.57;73.87;102233.31;4997204;28;20066;-76
2022/07/22 00:57:32;;;;;;;2.08;1.00;;;;;;;17.57;73.81;102222.72;4996865;28;20080;-76
2022/07/22 00:59:57;;;;;;;2.25;0.98;;;;;;;17.58;73.59;102226.22;4995955;28;20341;-76
2022/07/22 01:02:23;;;;;;;3.80;1.30;;;;;;;17.58;73.88;102228.84;4979743;28;20042;-76
2022/07/22 01:04:49;;;;;;;3.05;1.45;;;;;;;17.55;73.83;102227.19;4996184;28;20045;-76
2022/07/22 01:07:14;;;;;;;2.13;1.40;;;;;;;17.57;74.00;102224.47;4996585;28;20049;-76
2022/07/22 01:09:44;;;;;;;2.65;1.00;;;;;;;17.55;74.01;102216.59;4997103;28;20038;-76
2022/07/22 01:12:09;;;;;;;4.68;1.50;;;;;;;17.55;73.62;102223.69;4978955;28;20069;-76
2022/07/22 01:14:35;;;;;;;2.70;1.25;;;;;;;17.54;73.73;102228.16;4995543;28;20034;-76
2022/07/22 01:17:00;;;;;;;5.55;1.35;;;;;;;17.54;73.67;102227.28;4979302;28;20057;-76
2022/07/22 01:19:25;;;;;;;2.40;1.15;;;;;;;17.53;73.75;102218.47;4979685;28;20109;-76
2022/07/22 01:21:51;;;;;;;3.58;1.45;;;;;;;17.52;73.68;102218.53;4995814;28;20489;-76
2022/07/22 01:24:17;;;;;;;5.93;1.25;;;;;;;17.52;73.49;102215.88;4996700;28;20345;-76
2022/07/22 01:26:42;;;;;;;2.33;1.17;;;;;;;17.52;73.78;102215.88;4996769;28;20268;-76
2022/07/22 01:29:07;;;;;;;3.17;1.10;;;;;;;17.52;73.68;102207.94;4995426;28;20333;-76
2022/07/22 01:31:33;;;;;;;2.88;1.13;;;;;;;17.51;73.49;102212.38;4995920;28;20404;-76
2022/07/22 01:33:59;;;;;;;3.80;1.33;;;;;;;17.51;73.38;102212.38;4997014;28;20034;-76
2022/07/22 01:36:24;;;;;;;3.38;1.20;;;;;;;17.51;73.55;102215.03;4996233;28;20351;-76
2022/07/22 01:38:50;;;;;;;3.00;1.08;;;;;;;17.50;73.54;102216.00;4996477;28;20053;-76
2022/07/22 01:41:15;;;;;;;3.15;1.40;;;;;;;17.51;73.32;102216.84;4978637;28;20053;-76
2022/07/22 01:43:40;;;;;;;4.68;1.13;;;;;;;17.51;73.61;102216.84;4979151;28;20248;-76
2022/07/22 01:46:06;;;;;;;2.33;1.33;;;;;;;17.50;73.61;102218.63;4996811;28;20030;-76
2022/07/22 01:48:32;;;;;;;1.88;1.00;;;;;;;17.50;73.61;102213.34;4996450;28;20167;-76
2022/07/22 01:50:58;;;;;;;2.17;1.00;;;;;;;17.49;73.55;102214.25;4997066;28;20061;-76
2022/07/22 01:53:23;;;;;;;1.50;1.00;;;;;;;17.48;73.38;102209.88;4996485;28;20419;-76
2022/07/22 01:55:49;;;;;;;1.63;1.23;;;;;;;17.48;73.39;102207.22;4996767;28;20289;-76
2022/07/22 01:58:14;;;;;;;1.95;0.98;;;;;;;17.48;73.39;102204.59;4995765;28;20069;-76
2022/07/22 02:00:40;;;;;;;1.55;0.88;;;;;;;17.48;73.16;102216.97;4996285;28;20049;-76
2022/07/22 02:03:06;;;;;;;2.50;1.15;;;;;;;17.46;72.92;102203.81;4996478;28;20331;-76
2022/07/22 02:05:32;;;;;;;2.78;1.15;;;;;;;17.46;73.05;102207.34;4996429;28;20090;-76
2022/07/22 02:08:05;;;;;;;2.42;0.80;;;;;;;17.46;72.97;102211.75;4996286;28;20105;-76
2022/07/22 02:10:31;;;;;;;2.22;1.00;;;;;;;17.46;73.17;102201.16;4999389;28;20042;-76
2022/07/22 02:12:59;;;;;;;2.17;0.90;;;;;;;17.45;73.32;102200.31;4982470;28;20045;-76
2022/07/22 02:15:25;;;;;;;1.45;1.30;;;;;;;17.45;73.06;102202.09;4982651;28;20070;-76
2022/07/22 02:17:51;;;;;;;2.42;0.90;;;;;;;17.44;73.07;102203.03;5000113;28;20041;-76
2022/07/22 02:20:17;;;;;;;1.55;0.95;;;;;;;17.44;73.06;102200.38;5000694;28;20073;-76
2022/07/22 02:22:42;;;;;;;1.15;1.00;;;;;;;17.43;73.08;102201.31;5000352;28;20057;-76
2022/07/22 02:25:08;;;;;;;1.95;1.00;;;;;;;17.42;73.13;102197.78;4982854;28;20242;-76
2022/07/22 02:27:33;;;;;;;3.60;1.00;;;;;;;17.42;72.89;102196.94;4982199;28;20037;-76
2022/07/22 02:29:59;;;;;;;2.33;0.82;;;;;;;17.41;72.96;102196.09;5000420;28;20042;-76
2022/07/22 02:32:24;;;;;;;3.00;0.93;;;;;;;17.41;73.15;102196.09;4999479;28;20130;-76
2022/07/22 02:34:49;;;;;;;3.13;1.10;;;;;;;17.42;73.02;102197.78;5000614;28;20272;-76
2022/07/22 02:37:15;;;;;;;1.05;0.80;;;;;;;17.40;73.21;102193.50;4999849;28;20034;-76
2022/07/22 02:39:41;;;;;;;3.78;1.10;;;;;;;17.39;73.29;102189.13;4999677;28;20161;-76
2022/07/22 02:42:06;;;;;;;1.20;0.90;;;;;;;17.40;72.97;102196.16;5000056;28;20109;-76
2022/07/22 02:44:31;;;;;;;1.63;0.80;;;;;;;17.38;72.90;102190.94;4999209;28;20038;-76
2022/07/22 02:46:57;;;;;;;2.40;1.30;;;;;;;17.38;72.96;102187.44;4982344;28;20065;-76
2022/07/22 02:49:22;;;;;;;0.80;0.73;;;;;;;17.37;72.85;102185.72;4999066;28;20061;-76
2022/07/22 02:51:47;;;;;;;2.45;0.93;;;;;;;17.36;73.07;102184.84;4981872;28;20045;-76
2022/07/22 02:54:13;;;;;;;1.88;1.02;;;;;;;17.36;72.92;102170.78;4998831;28;20057;-76
2022/07/22 02:56:38;;;;;;;1.83;1.17;;;;;;;17.36;72.85;102176.06;4982318;28;20060;-76
2022/07/22 02:59:03;;;;;;;3.08;1.20;;;;;;;17.35;72.91;102169.03;4998291;28;20263;-76
2022/07/22 03:01:29;;;;;;;1.55;1.00;;;;;;;17.35;73.01;102166.38;4981269;28;20046;-76
2022/07/22 03:03:54;;;;;;;3.38;0.90;;;;;;;17.35;72.88;102174.34;4981991;28;20080;-76
2022/07/22 03:06:21;;;;;;;2.28;1.00;;;;;;;17.33;72.97;102174.41;4998834;28;20045;-76
2022/07/22 03:08:46;;;;;;;2.88;0.90;;;;;;;17.33;73.03;102166.47;4981995;28;20038;-76
2022/07/22 03:11:11;;;;;;;3.45;1.10;;;;;;;17.33;73.06;102177.06;4998442;28;20069;-76
2022/07/22 03:13:37;;;;;;;3.35;0.73;;;;;;;17.32;73.19;102178.00;4997557;28;20361;-76
2022/07/22 03:16:03;;;;;;;1.42;1.10;;;;;;;17.32;72.90;102177.13;4999196;28;20097;-76
2022/07/22 03:18:28;;;;;;;1.30;0.73;;;;;;;17.32;73.07;102180.66;4998511;28;20361;-76
2022/07/22 03:20:54;;;;;;;3.47;0.65;;;;;;;17.31;73.07;102181.56;4998451;28;20101;-76
2022/07/22 03:23:19;;;;;;;1.23;0.75;;;;;;;17.30;73.13;102187.81;4998872;28;20120;-76
2022/07/22 03:25:44;;;;;;;6.40;1.08;;;;;;;17.31;73.30;102178.06;4997276;28;20412;-76
2022/07/22 03:28:10;;;;;;;4.35;1.20;;;;;;;17.30;73.21;102179.88;4998654;28;20325;-76
2022/07/22 03:30:35;;;;;;;2.05;1.00;;;;;;;17.30;73.23;102177.22;4998720;28;20230;-76
2022/07/22 03:33:01;;;;;;;2.58;0.90;;;;;;;17.30;73.30;102182.53;4978152;28;20031;-76
2022/07/22 03:35:26;;;;;;;6.05;1.48;;;;;;;17.29;73.15;102183.44;4976536;28;20349;-76
2022/07/22 03:37:51;;;;;;;1.92;0.95;;;;;;;17.30;73.45;102184.28;4998787;28;20248;-76
2022/07/22 03:40:17;;;;;;;2.13;1.13;;;;;;;17.28;73.45;102189.66;4997960;28;20045;-76
2022/07/22 03:42:43;;;;;;;1.23;0.90;;;;;;;17.29;73.18;102178.13;4998756;28;20241;-76
2022/07/22 03:45:09;;;;;;;0.93;0.70;;;;;;;17.29;73.51;102185.22;4981525;28;20027;-76
2022/07/22 03:47:35;;;;;;;2.40;1.00;;;;;;;17.29;73.48;102178.13;4997609;28;20037;-76
2022/07/22 03:50:01;;;;;;;1.60;1.00;;;;;;;17.27;73.45;102180.84;4981325;28;20038;-76
2022/07/22 03:52:28;;;;;;;2.10;1.00;;;;;;;17.27;73.64;102190.59;4997949;28;20162;-76
2022/07/22 03:54:53;;;;;;;2.53;1.00;;;;;;;17.27;73.45;102187.94;4981105;28;20261;-76
2022/07/22 03:57:19;;;;;;;2.65;0.82;;;;;;;17.26;73.63;102189.75;4980676;28;20141;-76
2022/07/22 03:59:45;;;;;;;1.40;0.80;;;;;;;17.26;73.44;102191.50;4998474;28;20053;-76
2022/07/22 04:02:10;;;;;;;1.67;1.10;;;;;;;17.26;73.42;102191.50;4994820;28;20052;-76
2022/07/22 04:04:36;;;;;;;2.50;0.70;;;;;;;17.25;73.50;102195.09;4984521;28;20400;-76
2022/07/22 04:07:01;;;;;;;1.10;0.63;;;;;;;17.25;73.46;102193.31;4995577;28;20113;-76
2022/07/22 04:09:26;;;;;;;2.95;0.65;;;;;;;17.25;73.53;102190.66;4978990;28;20305;-76
2022/07/22 04:11:52;;;;;;;1.38;0.80;;;;;;;17.25;73.66;102195.09;4979142;28;20050;-76
2022/07/22 04:14:18;;;;;;;2.90;1.33;;;;;;;17.25;73.55;102192.47;4978647;28;20300;-76
2022/07/22 04:16:43;;;;;;;1.17;0.90;;;;;;;17.25;73.94;102187.16;4996008;28;20031;-76
2022/07/22 04:19:10;;;;;;;1.50;0.90;;;;;;;17.24;73.43;102188.94;4978159;28;20045;-76
2022/07/22 04:21:35;;;;;;;1.95;0.90;;;;;;;17.25;73.75;102187.16;4996387;28;20588;-76
2022/07/22 04:24:01;;;;;;;2.78;1.02;;;;;;;17.24;73.38;102183.63;4996165;28;20041;-76
2022/07/22 04:26:27;;;;;;;1.42;0.85;;;;;;;17.24;73.53;102191.59;4992078;28;20055;-76
2022/07/22 04:28:53;;;;;;;2.78;1.00;;;;;;;17.24;73.56;102182.78;4994969;28;20033;-76
2022/07/22 04:31:18;;;;;;;4.45;1.10;;;;;;;17.24;73.64;102182.78;4995177;28;20053;-76
2022/07/22 04:33:44;;;;;;;3.08;0.98;;;;;;;17.23;73.45;102179.28;4996271;28;20342;-76
2022/07/22 04:36:09;;;;;;;3.47;0.80;;;;;;;17.24;73.81;102182.78;4977676;28;20296;-76
2022/07/22 04:38:35;;;;;;;1.65;0.95;;;;;;;17.23;73.73;102171.34;4974619;28;20219;-76
2022/07/22 04:41:00;;;;;;;3.00;0.95;;;;;;;17.23;73.91;102174.00;4996473;28;20053;-76
2022/07/22 04:43:25;;;;;;;1.52;0.88;;;;;;;17.23;73.80;102176.66;4992787;28;20061;-76
2022/07/22 04:45:51;;;;;;;2.88;1.23;;;;;;;17.23;73.82;102176.66;4993096;28;20440;-76
2022/07/22 04:48:17;;;;;;;1.17;0.73;;;;;;;17.23;73.87;102175.78;4986189;28;20038;-76
2022/07/22 04:50:43;;;;;;;0.80;0.77;;;;;;;17.22;74.03;102174.91;4994208;28;20044;-76
2022/07/22 04:53:08;;;;;;;1.23;0.80;;;;;;;17.23;74.33;102179.28;4998290;28;20030;-76
2022/07/22 04:55:34;;;;;;;2.65;0.93;;;;;;;17.24;74.33;102185.44;4994616;28;20258;-76
2022/07/22 04:57:59;;;;;;;1.67;0.88;;;;;;;17.23;74.30;102171.34;4992604;28;20249;-76
2022/07/22 05:00:25;;;;;;;2.38;1.25;;;;;;;17.24;74.59;102173.03;4986180;28;20097;-76
2022/07/22 05:02:51;;;;;;;1.02;0.65;;;;;;;17.24;74.29;102181.00;4982179;28;20034;-76
2022/07/22 05:05:16;;;;;;;1.73;0.70;;;;;;;17.22;74.18;102185.50;5003204;28;20046;-75
2022/07/22 05:07:42;;;;;;;3.38;0.85;;;;;;;17.21;73.91;102178.50;4993653;28;20072;-76
2022/07/22 05:10:08;;;;;;;3.45;1.00;;;;;;;17.23;73.44;102176.66;4993966;28;20308;-76
2022/07/22 05:12:33;;;;;;;1.23;0.75;;;;;;;17.21;73.61;102175.88;4992186;28;20038;-76
2022/07/22 05:14:59;;;;;;;1.95;0.63;;;;;;;17.21;73.45;102173.22;4987861;28;20056;-76
2022/07/22 05:17:24;;;;;;;2.33;0.88;;;;;;;17.22;73.20;102179.38;4979279;28;20038;-76
2022/07/22 05:19:49;;;;;;;1.42;0.90;;;;;;;17.22;73.16;102180.22;4983984;28;20041;-76
2022/07/22 05:22:15;;;;;;;1.60;0.77;;;;;;;17.21;73.41;102175.88;4995131;28;20046;-76
2022/07/22 05:24:40;;;;;;;1.60;1.02;;;;;;;17.22;73.31;102168.78;4971841;28;20297;-76
2022/07/22 05:27:06;;;;;;;1.65;0.80;;;;;;;17.22;73.14;102168.78;4978289;28;20050;-76
2022/07/22 05:29:31;;;;;;;3.42;0.93;;;;;;;17.23;73.00;102173.16;4994769;28;20406;-76
2022/07/22 05:31:56;;;;;;;1.83;1.00;;;;;;;17.22;72.90;102176.72;4988496;28;20164;-76
2022/07/22 05:34:22;;;;;;;1.77;0.82;;;;;;;17.22;72.72;102179.38;4995027;28;20268;-76
2022/07/22 05:36:48;;;;;;;0.93;0.80;;;;;;;17.22;72.84;102180.22;4995147;28;20050;-76
2022/07/22 05:39:14;;;;;;;1.30;0.80;;;;;;;17.22;72.99;102177.56;4992926;28;20379;-76
2022/07/22 05:41:39;;;;;;;1.17;0.75;;;;;;;17.23;72.69;102181.09;5001180;28;20034;-76
2022/07/22 05:44:05;;;;;;;0.85;0.70;;;;;;;17.22;72.76;102179.38;5012531;28;20042;-76
2022/07/22 05:46:30;;;;;;;1.55;0.90;;;;;;;17.23;72.92;102181.09;4978278;28;20097;-76
2022/07/22 05:48:56;;;;;;;2.40;0.70;;;;;;;17.23;72.97;102175.78;4978267;28;20264;-76
2022/07/22 05:51:21;;;;;;;2.85;0.63;;;;;;;17.23;72.79;102175.78;4974668;28;20038;-76
2022/07/22 05:53:47;;;;;;;1.80;0.70;;;;;;;17.23;73.12;102178.44;4999969;28;20058;-76
2022/07/22 05:56:13;;;;;;;2.50;0.90;;;;;;;17.24;73.03;102182.78;4996343;28;20113;-76
2022/07/22 05:58:39;;;;;;;2.20;0.77;;;;;;;17.24;73.04;102180.16;4977476;28;20097;-76
2022/07/22 06:01:04;;;;;;;1.30;0.90;;;;;;;17.23;72.85;102184.59;4968082;28;20062;-76
2022/07/22 06:03:29;;;;;;;2.20;0.70;;;;;;;17.23;72.79;102179.28;4995546;28;20101;-76
2022/07/22 06:05:55;;;;;;;3.17;1.02;;;;;;;17.23;72.90;102173.16;4975954;28;20137;-76
2022/07/22 06:08:21;;;;;;;1.60;0.68;;;;;;;17.24;72.75;102177.50;4986270;28;20042;-76
2022/07/22 06:10:47;;;;;;;0.90;0.65;;;;;;;17.22;72.78;102174.06;4972100;28;20051;-75
2022/07/22 06:13:12;;;;;;;2.95;0.95;;;;;;;17.19;71.92;102182.16;4996921;28;20040;-76
2022/07/22 06:15:38;;;;;;;1.95;0.93;;;;;;;17.18;71.75;102175.16;4996348;28;20060;-76
2022/07/22 06:18:03;;;;;;;1.52;1.00;;;;;;;17.16;71.46;102172.56;5004037;28;20034;-76
2022/07/22 06:20:29;;;;;;;2.10;0.90;;;;;;;17.17;71.54;102163.72;4979627;28;20105;-76
2022/07/22 06:22:54;;;;;;;1.58;0.75;;;;;;;17.17;71.48;102170.78;4977976;28;20050;-76
2022/07/22 06:25:19;;;;;;;2.35;0.70;;;;;;;17.17;71.47;102168.13;5003490;28;20042;-76
2022/07/22 06:27:45;;;;;;;0.93;0.70;;;;;;;17.17;71.63;102169.00;4987198;28;20383;-76
2022/07/22 06:30:11;;;;;;;1.83;0.65;;;;;;;17.19;71.82;102177.72;4984455;28;20046;-76
2022/07/22 06:32:36;;;;;;;1.63;0.60;;;;;;;17.20;72.03;102174.13;4961010;28;20035;-76
2022/07/22 06:35:02;;;;;;;2.42;0.73;;;;;;;17.22;71.40;102185.50;4977662;28;20039;-76
2022/07/22 06:37:28;;;;;;;1.08;0.60;;;;;;;17.21;71.57;102188.25;4997210;28;20351;-76
2022/07/22 06:39:53;;;;;;;1.10;0.70;;;;;;;17.24;71.32;102188.09;4989730;28;20042;-76
2022/07/22 06:42:18;;;;;;;1.45;0.73;;;;;;;17.23;71.64;102183.75;4956116;28;20049;-76
2022/07/22 06:44:44;;;;;;;2.55;0.80;;;;;;;17.24;71.79;102182.78;4973731;28;20142;-76
2022/07/22 06:47:09;;;;;;;1.42;0.70;;;;;;;17.24;71.71;102185.44;4980513;28;20089;-76
2022/07/22 06:49:35;;;;;;;0.77;0.50;;;;;;;17.24;71.92;102173.03;4985104;28;20038;-76
2022/07/22 06:52:01;;;;;;;2.00;0.73;;;;;;;17.26;71.82;102172.97;4979129;28;20036;-76
2022/07/22 06:54:27;;;;;;;2.75;0.60;;;;;;;17.26;72.20;102181.81;4982474;28;20101;-76
2022/07/22 06:56:52;;;;;;;2.83;0.85;;;;;;;17.28;71.87;102187.00;5001403;28;20320;-76
2022/07/22 06:59:18;;;;;;;2.22;0.77;;;;;;;17.27;72.01;102183.50;4994263;28;20026;-76
2022/07/22 07:01:43;;;;;;;1.98;0.90;;;;;;;17.27;71.88;102180.84;4984401;28;20049;-76
2022/07/22 07:04:09;;;;;;;1.25;0.80;;;;;;;17.29;71.82;102188.72;4995605;28;20026;-76
2022/07/22 07:06:35;;;;;;;3.80;0.90;;;;;;;17.29;71.78;102178.13;4991143;28;20042;-76
2022/07/22 07:09:00;;;;;;;4.30;0.90;;;;;;;17.30;71.93;102184.28;4977518;28;20042;-76
2022/07/22 07:11:26;;;;;;;2.97;0.70;;;;;;;17.27;71.58;102180.84;4972639;28;20383;-76
2022/07/22 07:13:51;;;;;;;1.20;0.60;;;;;;;17.29;71.79;102182.59;4959976;28;20035;-76
2022/07/22 07:16:17;;;;;;;1.88;0.80;;;;;;;17.30;71.99;102182.53;4986140;28;20043;-76
2022/07/22 07:18:42;;;;;;;4.60;0.90;;;;;;;17.30;71.96;102186.94;4994816;28;20315;-76
2022/07/22 07:21:08;;;;;;;2.65;1.05;;;;;;;17.31;71.92;102176.28;4980144;28;20041;-76
2022/07/22 07:23:33;;;;;;;0.50;0.50;;;;;;;17.32;72.09;102177.13;4993077;28;20144;-76
2022/07/22 07:25:58;;;;;;;2.95;1.20;;;;;;;17.32;72.25;102182.41;4992470;28;20349;-76
2022/07/22 07:28:24;;;;;;;3.10;1.10;;;;;;;17.33;72.14;102176.19;4981771;28;20081;-76
2022/07/22 07:30:50;;;;;;;0.82;0.55;;;;;;;17.32;72.04;102175.34;4985236;28;20263;-76
2022/07/22 07:33:15;;;;;;;1.17;0.90;;;;;;;17.34;72.02;102172.63;4993049;28;20038;-76
2022/07/22 07:35:41;;;;;;;2.65;0.95;;;;;;;17.33;71.83;102173.56;4974780;28;20106;-76
2022/07/22 07:38:06;;;;;;;3.33;0.95;;;;;;;17.32;72.28;102172.72;4980474;28;20053;-76
2022/07/22 07:40:32;;;;;;;2.50;0.95;;;;;;;17.33;72.12;102179.69;4965362;28;20627;-76
2022/07/22 07:42:57;;;;;;;1.42;0.90;;;;;;;17.34;72.13;102181.44;4992730;28;20041;-76
2022/07/22 07:45:23;;;;;;;2.00;0.80;;;;;;;17.34;72.03;102177.94;5003165;28;20034;-76
2022/07/22 07:47:48;;;;;;;2.50;1.02;;;;;;;17.33;72.15;102179.69;4997683;28;20042;-76
2022/07/22 07:50:14;;;;;;;1.13;0.70;;;;;;;17.35;71.96;102184.94;4984409;28;20058;-76
2022/07/22 07:52:41;;;;;;;3.65;1.05;;;;;;;17.36;71.82;102173.41;4978548;28;20102;-76
2022/07/22 07:55:07;;;;;;;0.95;0.80;;;;;;;17.34;71.58;102172.63;4995546;28;20034;-76
2022/07/22 07:57:33;;;;;;;3.13;1.02;;;;;;;17.32;71.48;102170.06;4976231;28;20100;-76
2022/07/22 07:59:58;;;;;;;2.20;0.90;;;;;;;17.31;71.46;102170.97;4994308;28;20047;-76
2022/07/22 08:02:24;;;;;;;2.80;0.90;;;;;;;17.32;71.49;102166.53;4994380;28;20092;-76
2022/07/22 08:04:49;;;;;;;1.33;1.00;;;;;;;17.32;71.59;102172.72;4993860;28;20046;-76
2022/07/22 08:07:15;;;;;;;2.90;1.10;;;;;;;17.31;71.15;102168.34;4978527;28;20065;-76
2022/07/22 08:09:40;;;;;;;1.17;0.90;;;;;;;17.31;70.94;102172.78;4974187;28;20042;-76
2022/07/22 08:12:06;;;;;;;2.33;1.27;;;;;;;17.31;70.97;102167.47;4977979;28;20042;-76
2022/07/22 08:14:32;;;;;;;5.25;1.13;;;;;;;17.31;70.59;102168.34;4978385;28;20268;-76
2022/07/22 08:16:58;;;;;;;1.42;1.02;;;;;;;17.31;70.70;102163.03;5005310;28;20330;-76
2022/07/22 08:19:23;;;;;;;1.35;0.88;;;;;;;17.30;70.60;102171.94;4980321;28;20034;-76
2022/07/22 08:21:49;;;;;;;5.93;1.50;;;;;;;17.30;71.22;102155.16;5004030;28;20030;-76
2022/07/22 08:24:14;;;;;;;2.45;1.23;;;;;;;17.30;71.14;102161.34;4974573;28;20034;-76
2022/07/22 08:26:39;;;;;;;5.20;1.08;;;;;;;17.30;70.77;102157.81;4993655;28;20082;-76
2022/07/22 08:29:07;;;;;;;3.17;1.05;;;;;;;17.32;70.66;102153.28;4993836;28;20302;-76
2022/07/22 08:31:34;;;;;;;2.72;1.00;;;;;;;17.34;70.35;102160.25;4996908;28;20353;-76
2022/07/22 08:34:01;;;;;;;1.95;1.10;;;;;;;17.35;70.31;102156.66;4978407;28;20038;-76
2022/07/22 08:36:26;;;;;;;1.90;1.40;;;;;;;17.34;70.42;102152.31;4981292;28;20045;-76
2022/07/22 08:38:51;;;;;;;2.90;1.20;;;;;;;17.32;70.47;102155.94;4995672;28;20264;-76
2022/07/22 08:41:18;;;;;;;1.35;1.10;;;;;;;17.34;70.23;102147.00;4993491;28;20034;-76
2022/07/22 08:43:46;;;;;;;1.83;1.00;;;;;;;17.35;70.39;102155.81;4995221;28;20101;-76
2022/07/22 08:46:12;;;;;;;5.50;1.10;;;;;;;17.36;70.16;102152.25;5000276;28;20113;-76
2022/07/22 08:48:38;;;;;;;5.03;1.20;;;;;;;17.37;70.29;102141.56;4996072;28;20033;-76
2022/07/22 08:51:04;;;;;;;2.45;1.27;;;;;;;17.36;70.20;102139.84;4991231;28;20038;-76
2022/07/22 08:53:29;;;;;;;4.88;1.48;;;;;;;17.37;69.91;102148.63;4977134;28;20030;-76
2022/07/22 08:55:55;;;;;;;5.50;1.60;;;;;;;17.36;70.18;102144.28;4988795;28;20058;-76
2022/07/22 08:58:20;;;;;;;4.95;1.13;;;;;;;17.38;70.18;102151.22;4973147;28;20043;-76
2022/07/22 09:00:46;;;;;;;1.50;0.90;;;;;;;17.42;70.03;102154.56;5000575;28;21059;-76
2022/07/22 09:03:27;;;;;;;3.35;1.23;;;;;;;17.44;69.48;102152.72;4988953;28;20069;-77
2022/07/22 09:05:54;;;;;;;1.55;1.20;;;;;;;17.45;69.69;102144.69;5004414;28;20030;-76
2022/07/22 09:08:20;;;;;;;1.40;0.90;;;;;;;17.46;70.15;102140.25;4972554;28;20467;-76
2022/07/22 09:10:46;;;;;;;4.05;1.33;;;;;;;17.46;70.13;102137.59;5005163;28;20329;-76
2022/07/22 09:13:14;;;;;;;3.60;1.77;;;;;;;17.47;69.58;102141.97;4994101;28;20030;-76
2022/07/22 09:15:51;;;;;;;3.65;1.33;;;;;;;17.48;69.97;102132.22;4990407;28;20069;-76
2022/07/22 09:18:17;;;;;;;3.38;1.20;;;;;;;17.50;69.65;102136.53;4976922;28;20257;-76
2022/07/22 09:20:44;;;;;;;5.28;1.27;;;;;;;17.50;68.64;102133.00;4996534;28;20041;-76
2022/07/22 09:23:17;;;;;;;3.22;1.40;;;;;;;17.52;69.04;102134.66;5002267;28;20113;-76
2022/07/22 09:25:42;;;;;;;3.45;1.40;;;;;;;17.56;68.25;102141.50;4999805;28;20321;-76
2022/07/22 09:28:08;;;;;;;4.95;1.25;;;;;;;17.58;68.49;102138.78;4996961;28;20041;-76
2022/07/22 09:30:48;;;;;;;3.20;1.10;;;;;;;17.62;68.68;102141.19;4995478;28;20038;-76
2022/07/22 09:33:14;;;;;;;3.28;1.27;;;;;;;17.65;68.51;102142.84;4994726;28;20045;-76
2022/07/22 09:35:40;;;;;;;3.58;1.40;;;;;;;17.69;68.39;102143.56;4996015;28;20041;-76
2022/07/22 09:38:07;;;;;;;1.60;1.05;;;;;;;17.72;68.10;102140.72;4976573;28;20052;-77
2022/07/22 09:40:41;;;;;;;1.67;1.00;;;;;;;17.71;67.93;102136.38;4974839;28;20040;-76
2022/07/22 09:43:12;;;;;;;1.42;0.95;;;;;;;17.72;68.03;102133.66;4990388;28;20034;-76
2022/07/22 09:46:04;;;;;;;4.75;1.55;;;;;;;17.70;67.43;102147.91;4996065;28;20045;-77
2022/07/22 09:48:30;;;;;;;3.85;1.77;;;;;;;17.71;67.80;102154.94;4989617;28;20404;-76
2022/07/22 09:50:57;;;;;;;2.03;1.13;;;;;;;17.73;67.39;102153.91;4997572;28;20034;-77
2022/07/22 09:53:27;;;;;;;2.65;1.33;;;;;;;17.76;67.28;102164.38;4976202;28;20042;-76
2022/07/22 09:55:53;;;;;;;1.52;1.27;;;;;;;17.80;67.73;102157.97;4993253;28;20214;-76
2022/07/22 09:58:18;;;;;;;1.05;0.90;;;;;;;17.83;67.43;102143.72;4993928;28;20150;-76
2022/07/22 10:00:44;;;;;;;2.97;1.40;;;;;;;17.87;68.21;102149.75;4996800;28;20065;-77
2022/07/22 10:03:30;;;;;;;2.58;1.23;;;;;;;17.89;68.58;102148.75;5004205;28;20032;-76
2022/07/22 10:05:57;;;;;;;4.40;1.50;;;;;;;17.91;67.85;102146.00;4996317;28;20113;-77
2022/07/22 10:08:25;;;;;;;2.47;1.10;;;;;;;17.91;66.73;102141.56;4985925;28;20093;-77
2022/07/22 10:10:52;;;;;;;1.70;1.08;;;;;;;17.93;66.72;102142.34;4997840;28;20038;-77
2022/07/22 10:13:18;;;;;;;2.78;1.13;;;;;;;17.94;67.15;102140.56;4994163;28;20113;-76
2022/07/22 10:15:45;;;;;;;3.50;1.27;;;;;;;17.93;65.42;102141.50;4996562;28;20319;-77
2022/07/22 10:18:16;;;;;;;5.38;1.45;;;;;;;17.93;66.18;102138.84;4997144;28;20046;-77
2022/07/22 10:20:42;;;;;;;3.72;1.52;;;;;;;17.95;66.20;102147.56;4997127;28;20265;-76
2022/07/22 10:23:08;;;;;;;1.77;1.05;;;;;;;17.94;66.08;102149.38;4993925;28;20046;-77
2022/07/22 10:25:55;;;;;;;3.13;1.13;;;;;;;17.95;65.72;102155.50;4984083;28;20041;-77
2022/07/22 10:28:26;;;;;;;1.70;0.93;;;;;;;17.96;66.16;102154.59;4974590;28;20035;-77
2022/07/22 10:30:52;;;;;;;5.80;1.10;;;;;;;17.94;66.08;102157.31;4996063;28;20099;-77
2022/07/22 10:33:21;;;;;;;4.25;1.00;;;;;;;17.96;66.52;102159.91;5005929;28;20278;-77
2022/07/22 10:35:56;;;;;;;4.25;1.20;;;;;;;17.99;66.72;102159.72;4997867;28;20289;-77
2022/07/22 10:38:22;;;;;;;2.17;1.00;;;;;;;17.99;66.62;102160.59;5007049;28;20097;-76
2022/07/22 10:40:55;;;;;;;1.98;0.98;;;;;;;18.01;67.30;102164.03;4999546;28;20088;-77
2022/07/22 10:43:22;;;;;;;3.22;1.10;;;;;;;18.00;67.28;102154.34;4999914;28;20094;-77
2022/07/22 10:45:58;;;;;;;3.65;1.05;;;;;;;18.02;67.14;102141.88;4991851;28;20104;-77
2022/07/22 10:48:27;;;;;;;2.05;1.33;;;;;;;18.04;67.27;102139.13;5002952;28;20036;-77
2022/07/22 10:51:04;;;;;;;1.65;1.27;;;;;;;18.04;67.28;102139.13;4991768;28;20038;-77
2022/07/22 10:53:57;;;;;;;2.47;1.20;;;;;;;18.07;67.21;102143.44;4994794;28;20353;-77
2022/07/22 10:56:31;;;;;;;1.95;1.38;;;;;;;18.09;67.42;102130.97;4998822;28;20048;-77
2022/07/22 10:59:09;;;;;;;1.55;1.08;;;;;;;18.09;67.05;102121.22;4976832;28;20104;-77
2022/07/22 11:01:36;;;;;;;2.65;1.50;;;;;;;18.12;67.12;102107.81;4981970;28;20270;-77
2022/07/22 11:04:15;;;;;;;6.22;1.50;;;;;;;18.12;65.91;102112.22;4993767;28;20038;-77
2022/07/22 11:06:41;;;;;;;;;;;;;;;18.13;66.15;102111.31;5000461;28;20101;-77
2022/07/22 11:09:09;;;;;;;2.47;0.95;;;;;;;18.14;66.21;102121.84;4996856;28;20108;-77
2022/07/22 11:11:41;;;;;;;;;;;;;;;18.14;65.98;102119.19;4989588;28;20060;-77
2022/07/22 11:14:30;;;;;;;6.60;1.63;;;;;;;18.13;65.99;102111.31;4991778;28;19913;-77
2022/07/22 11:16:57;;;;;;;2.78;1.25;;;;;;;18.14;66.36;102119.19;4996286;28;20042;-77
2022/07/22 11:19:28;;;;;;;3.17;1.30;;;;;;;18.16;66.68;102112.00;4997099;28;20022;-77
2022/07/22 11:21:56;;;;;;;4.05;1.60;;;;;;;18.20;67.23;102121.50;5001426;28;20336;-77
2022/07/22 11:24:23;;;;;;;3.05;1.30;;;;;;;18.22;66.78;102126.72;5000986;28;20041;-76